Time;durP1;ratioP1;P1;durP2;ratioP2;P2;SDS_P1;SDS_P2;PMS_P1;PMS_P2;Temp;Humidity;BMP_temperature;BMP_pressure;BME280_temperature;BME280_humidity;BME280_pressure;Samples;Min_cycle;Max_cycle;Signal;HPM_P1;HPM_P2
2024/02/14 00:00:57;;;;;;;7.25;3.42;;;11.40;99.90;;;;;;4264942;27;20129;-73
2024/02/14 00:03:01;;;;;;;4.60;3.45;;;11.50;99.90;;;;;;4264775;27;20062;-73
2024/02/14 00:05:05;;;;;;;7.15;3.33;;;11.50;99.90;;;;;;4265086;27;20038;-74
2024/02/14 00:07:08;;;;;;;5.43;3.50;;;11.50;99.90;;;;;;4265217;27;20390;-73
2024/02/14 00:09:14;;;;;;;4.80;3.28;;;11.50;99.90;;;;;;4265137;27;20557;-74
2024/02/14 00:11:17;;;;;;;6.40;3.40;;;11.50;99.90;;;;;;4264360;27;20103;-74
2024/02/14 00:13:19;;;;;;;7.28;3.25;;;11.50;99.90;;;;;;4264829;27;20401;-73
2024/02/14 00:15:21;;;;;;;6.93;3.75;;;11.50;99.90;;;;;;4265382;27;20057;-73
2024/02/14 00:17:23;;;;;;;5.90;3.40;;;11.50;99.90;;;;;;4265013;27;20101;-73
2024/02/14 00:19:26;;;;;;;6.30;3.42;;;11.60;99.90;;;;;;4265102;27;20039;-73
2024/02/14 00:21:29;;;;;;;8.60;3.60;;;11.60;99.90;;;;;;4264952;27;20419;-73
2024/02/14 00:23:32;;;;;;;6.90;3.65;;;11.60;99.90;;;;;;4265177;27;20125;-73
2024/02/14 00:25:37;;;;;;;6.18;3.38;;;11.60;99.90;;;;;;4265200;27;20121;-73
2024/02/14 00:27:40;;;;;;;5.95;3.83;;;11.70;99.90;;;;;;4265065;27;20382;-73
2024/02/14 00:29:44;;;;;;;6.32;3.30;;;11.60;99.90;;;;;;4264891;27;20122;-74
2024/02/14 00:31:49;;;;;;;6.72;3.25;;;11.70;99.90;;;;;;4265358;27;20546;-74
2024/02/14 00:33:53;;;;;;;5.35;3.03;;;11.60;99.90;;;;;;4264919;27;20472;-74
2024/02/14 00:35:55;;;;;;;7.47;3.90;;;11.60;99.90;;;;;;4266662;27;20095;-73
2024/02/14 00:37:57;;;;;;;5.95;3.55;;;11.50;99.90;;;;;;4268366;27;20054;-73
2024/02/14 00:40:01;;;;;;;6.95;3.28;;;11.60;99.90;;;;;;4268119;27;20039;-73
2024/02/14 00:42:04;;;;;;;6.53;3.15;;;11.50;99.90;;;;;;4268025;27;20557;-73
2024/02/14 00:44:06;;;;;;;7.25;3.40;;;11.50;99.90;;;;;;4269960;27;20051;-73
2024/02/14 00:46:09;;;;;;;4.50;3.25;;;11.60;99.90;;;;;;4271162;27;20046;-72
2024/02/14 00:48:11;;;;;;;6.63;3.20;;;11.50;99.90;;;;;;4269842;27;20080;-73
2024/02/14 00:50:13;;;;;;;7.55;3.63;;;11.50;99.90;;;;;;4269141;27;20138;-73
2024/02/14 00:52:16;;;;;;;10.63;3.42;;;11.50;99.90;;;;;;4268798;27;20043;-73
2024/02/14 00:54:19;;;;;;;5.78;3.42;;;11.50;99.90;;;;;;4268441;27;20049;-73
2024/02/14 00:56:23;;;;;;;6.80;3.45;;;11.50;99.90;;;;;;4268942;27;20446;-72
2024/02/14 00:58:26;;;;;;;4.63;3.45;;;11.50;99.90;;;;;;4271457;27;20047;-72
2024/02/14 01:00:28;;;;;;;7.05;3.65;;;11.50;99.90;;;;;;4272728;27;20049;-73
2024/02/14 01:02:30;;;;;;;7.97;4.28;;;11.50;99.90;;;;;;4271906;27;20038;-73
2024/02/14 01:04:36;;;;;;;7.70;3.63;;;11.60;99.90;;;;;;4270349;27;20126;-73
2024/02/14 01:06:38;;;;;;;10.10;3.53;;;11.60;99.90;;;;;;4268711;27;20133;-73
2024/02/14 01:08:41;;;;;;;6.03;3.72;;;11.60;99.90;;;;;;4267663;27;20125;-73
2024/02/14 01:10:43;;;;;;;9.43;4.30;;;11.60;99.90;;;;;;4249144;27;20086;-72
2024/02/14 01:12:47;;;;;;;9.25;4.60;;;11.60;99.90;;;;;;4267550;27;20451;-72
2024/02/14 01:14:49;;;;;;;5.83;4.00;;;11.60;99.90;;;;;;4268036;27;20053;-73
2024/02/14 01:16:53;;;;;;;7.20;3.90;;;11.50;99.90;;;;;;4268421;27;20043;-72
2024/02/14 01:18:56;;;;;;;9.50;3.90;;;11.60;99.90;;;;;;4268545;27;20065;-72
2024/02/14 01:21:00;;;;;;;4.78;3.42;;;11.60;99.90;;;;;;4249876;27;20051;-72
2024/02/14 01:23:03;;;;;;;8.07;4.10;;;11.70;99.90;;;;;;4267821;27;20405;-72
2024/02/14 01:25:06;;;;;;;8.65;3.65;;;11.70;99.90;;;;;;4249277;27;20050;-71
2024/02/14 01:27:09;;;;;;;6.53;3.45;;;11.70;99.90;;;;;;4268033;27;20054;-72
2024/02/14 01:29:16;;;;;;;7.55;3.67;;;11.70;99.90;;;;;;4267857;27;20049;-73
2024/02/14 01:31:19;;;;;;;6.32;3.95;;;11.80;99.90;;;;;;4267604;27;20510;-73
2024/02/14 01:33:22;;;;;;;8.13;4.30;;;11.70;99.90;;;;;;4267287;27;20469;-72
2024/02/14 01:35:24;;;;;;;7.72;3.70;;;11.70;99.90;;;;;;4267099;27;20043;-72
2024/02/14 01:37:26;;;;;;;8.73;3.92;;;11.70;99.90;;;;;;4267154;27;20054;-72
2024/02/14 01:39:28;;;;;;;5.97;4.22;;;11.70;99.90;;;;;;4267059;27;20046;-73
2024/02/14 01:41:32;;;;;;;7.22;4.63;;;11.70;99.90;;;;;;4266914;27;20042;-72
2024/02/14 01:43:34;;;;;;;8.00;4.10;;;11.70;99.90;;;;;;4266906;27;20050;-73
2024/02/14 01:45:39;;;;;;;7.50;4.10;;;11.80;99.90;;;;;;4267086;27;20379;-73
2024/02/14 01:47:41;;;;;;;10.32;4.32;;;11.80;99.90;;;;;;4265846;27;20054;-73
2024/02/14 01:49:44;;;;;;;9.40;4.53;;;11.70;99.90;;;;;;4266574;27;20054;-73
2024/02/14 01:51:47;;;;;;;10.55;3.92;;;11.70;99.90;;;;;;4266840;27;20095;-73
2024/02/14 01:53:49;;;;;;;8.15;4.15;;;11.80;99.90;;;;;;4266567;27;20042;-72
2024/02/14 01:55:53;;;;;;;6.75;3.92;;;11.80;99.90;;;;;;4266589;27;20486;-72
2024/02/14 01:57:55;;;;;;;8.95;4.85;;;11.80;99.90;;;;;;4266535;27;20077;-73
2024/02/14 01:59:59;;;;;;;6.70;4.32;;;11.90;99.90;;;;;;4266648;27;20406;-72
2024/02/14 02:02:09;;;;;;;9.30;4.53;;;11.90;99.90;;;;;;4266428;27;20047;-73
2024/02/14 02:04:11;;;;;;;8.88;4.47;;;11.90;99.90;;;;;;4266531;27;20074;-73
2024/02/14 02:06:14;;;;;;;8.10;4.40;;;11.90;99.90;;;;;;4266645;27;20043;-73
2024/02/14 02:08:17;;;;;;;7.80;4.22;;;11.80;99.90;;;;;;4265964;27;20039;-73
2024/02/14 02:10:21;;;;;;;7.47;4.47;;;11.80;99.90;;;;;;4266473;27;20125;-73
2024/02/14 02:12:25;;;;;;;8.35;4.30;;;11.80;99.90;;;;;;4266324;27;20047;-73
2024/02/14 02:14:27;;;;;;;5.93;3.70;;;11.80;99.90;;;;;;4266253;27;20064;-72
2024/02/14 02:16:29;;;;;;;7.97;4.15;;;11.80;99.90;;;;;;4266468;27;20416;-73
2024/02/14 02:18:33;;;;;;;5.35;3.80;;;11.90;99.90;;;;;;4266535;27;20043;-74
2024/02/14 02:20:35;;;;;;;7.28;4.53;;;12.00;99.90;;;;;;4266464;27;20049;-73
2024/02/14 02:22:44;;;;;;;10.20;4.65;;;11.90;99.90;;;;;;4265861;27;20401;-73
2024/02/14 02:24:47;;;;;;;10.05;4.72;;;11.90;99.90;;;;;;4266494;27;20043;-73
2024/02/14 02:26:49;;;;;;;8.70;4.30;;;11.90;99.90;;;;;;4266448;27;20051;-72
2024/02/14 02:28:51;;;;;;;7.65;4.53;;;11.90;99.90;;;;;;4265979;27;20125;-73
2024/02/14 02:30:55;;;;;;;7.45;4.25;;;11.90;99.90;;;;;;4266292;27;20351;-73
2024/02/14 02:32:58;;;;;;;7.57;3.70;;;11.90;99.90;;;;;;4266266;27;20050;-73
2024/02/14 02:35:01;;;;;;;6.15;3.75;;;11.90;99.90;;;;;;4247692;27;20559;-73
2024/02/14 02:37:07;;;;;;;6.93;4.57;;;11.90;99.90;;;;;;4265661;27;20062;-73
2024/02/14 02:39:11;;;;;;;6.57;4.70;;;11.90;99.90;;;;;;4265762;27;20486;-71
2024/02/14 02:41:15;;;;;;;7.95;4.72;;;11.90;99.90;;;;;;4266167;27;20064;-73
2024/02/14 02:43:17;;;;;;;7.07;4.65;;;12.00;99.90;;;;;;4265790;27;20141;-73
2024/02/14 02:45:19;;;;;;;7.18;4.30;;;12.00;99.90;;;;;;4265932;27;20070;-73
2024/02/14 02:47:21;;;;;;;6.38;4.10;;;12.00;99.90;;;;;;4266007;27;20049;-73
2024/02/14 02:49:23;;;;;;;6.38;4.50;;;12.00;99.90;;;;;;4266120;27;20053;-73
2024/02/14 02:51:27;;;;;;;13.27;4.28;;;12.00;99.90;;;;;;4266624;27;20447;-74
2024/02/14 02:53:29;;;;;;;8.60;4.13;;;12.00;99.90;;;;;;4267215;27;20129;-73
2024/02/14 02:55:36;;;;;;;5.07;3.70;;;11.90;99.90;;;;;;4266321;27;20055;-73
2024/02/14 02:57:40;;;;;;;6.35;4.60;;;12.00;99.90;;;;;;4266352;27;20047;-73
2024/02/14 02:59:44;;;;;;;5.30;3.77;;;12.00;99.90;;;;;;4265537;27;20043;-73
2024/02/14 03:01:48;;;;;;;5.10;3.90;;;12.00;99.90;;;;;;4266102;27;20039;-73
2024/02/14 03:03:50;;;;;;;7.32;4.57;;;12.00;99.90;;;;;;4265824;27;20111;-73
2024/02/14 03:05:55;;;;;;;8.73;4.57;;;12.00;99.90;;;;;;4265184;27;20070;-73
2024/02/14 03:07:58;;;;;;;7.68;4.65;;;12.00;99.90;;;;;;4265667;27;20091;-73
2024/02/14 03:10:00;;;;;;;6.07;4.38;;;11.90;99.90;;;;;;4265828;27;20066;-72
2024/02/14 03:12:04;;;;;;;8.43;4.28;;;11.80;99.90;;;;;;4265684;27;20066;-71
2024/02/14 03:14:07;;;;;;;7.28;4.65;;;11.90;99.90;;;;;;4265877;27;20497;-73
2024/02/14 03:16:14;;;;;;;6.03;4.00;;;11.90;99.90;;;;;;4265813;27;20469;-72
2024/02/14 03:18:23;;;;;;;7.05;4.03;;;11.90;99.90;;;;;;4265755;27;20039;-72
2024/02/14 03:20:25;;;;;;;4.93;4.13;;;11.80;99.90;;;;;;4265200;27;20477;-73
2024/02/14 03:22:27;;;;;;;3.83;3.22;;;11.80;99.90;;;;;;4265430;27;20482;-74
2024/02/14 03:24:29;;;;;;;6.68;4.85;;;11.80;99.90;;;;;;4265451;27;20107;-73
2024/02/14 03:26:34;;;;;;;5.68;3.55;;;11.90;99.90;;;;;;4265026;27;20142;-73
2024/02/14 03:28:38;;;;;;;;;;;11.90;99.90;;;;;;4248092;28;20474;-73
2024/02/14 03:30:40;;;;;;;5.13;4.05;;;11.90;99.90;;;;;;4265440;27;19931;-74
2024/02/14 03:32:42;;;;;;;6.93;4.10;;;11.90;99.90;;;;;;4267093;27;20053;-70
2024/02/14 03:34:44;;;;;;;6.93;4.78;;;12.00;99.90;;;;;;4266909;27;20397;-70
2024/02/14 03:36:46;;;;;;;5.93;4.38;;;11.90;99.90;;;;;;4265899;27;20050;-71
2024/02/14 03:38:48;;;;;;;5.13;3.97;;;11.90;99.90;;;;;;4267565;27;20070;-73
2024/02/14 03:40:51;;;;;;;6.28;4.72;;;12.00;99.90;;;;;;4268481;27;20118;-71
2024/02/14 03:42:53;;;;;;;4.65;4.05;;;12.00;99.90;;;;;;4266781;27;20047;-71
2024/02/14 03:45:02;;;;;;;5.60;4.68;;;12.00;99.90;;;;;;4268928;27;20054;-72
2024/02/14 03:47:05;;;;;;;8.07;4.78;;;12.00;99.90;;;;;;4267422;27;20096;-74
2024/02/14 03:49:07;;;;;;;6.22;4.05;;;12.00;99.90;;;;;;4266633;27;20051;-74
2024/02/14 03:51:11;;;;;;;5.55;3.90;;;12.00;99.90;;;;;;4266621;27;20050;-73
2024/02/14 03:53:14;;;;;;;5.43;3.85;;;12.00;99.90;;;;;;4265382;27;20092;-74
2024/02/14 03:55:19;;;;;;;5.50;4.38;;;12.10;99.90;;;;;;4265731;27;20054;-74
2024/02/14 03:57:20;;;;;;;5.90;4.53;;;12.00;99.90;;;;;;4266449;27;20143;-73
2024/02/14 03:59:24;;;;;;;8.05;4.88;;;12.00;99.90;;;;;;4266266;27;20045;-73
2024/02/14 04:01:31;;;;;;;5.60;4.30;;;12.10;99.90;;;;;;4265454;27;20570;-74
2024/02/14 04:03:34;;;;;;;5.03;3.90;;;12.10;99.90;;;;;;4265231;27;20057;-73
2024/02/14 04:05:36;;;;;;;7.03;4.65;;;12.10;99.90;;;;;;4266162;27;20061;-74
2024/02/14 04:07:38;;;;;;;6.97;4.18;;;12.20;99.90;;;;;;4266992;27;20469;-72
2024/02/14 04:09:42;;;;;;;6.18;3.85;;;12.20;99.90;;;;;;4265701;27;20412;-71
2024/02/14 04:11:44;;;;;;;6.47;4.68;;;12.20;99.90;;;;;;4250429;27;20043;-74
2024/02/14 04:13:46;;;;;;;5.43;3.97;;;12.20;99.90;;;;;;4268408;27;20042;-73
2024/02/14 04:15:48;;;;;;;7.00;3.63;;;12.20;99.90;;;;;;4268399;27;20472;-73
2024/02/14 04:17:52;;;;;;;5.72;4.00;;;12.20;99.90;;;;;;4268411;27;20048;-73
2024/02/14 04:19:54;;;;;;;5.75;3.65;;;12.20;99.90;;;;;;4268261;27;20118;-73
2024/02/14 04:21:56;;;;;;;7.68;4.28;;;12.10;99.90;;;;;;4249841;27;20126;-72
2024/02/14 04:23:58;;;;;;;5.45;3.85;;;12.20;99.90;;;;;;4268265;27;20051;-73
2024/02/14 04:26:00;;;;;;;4.70;3.30;;;12.20;99.90;;;;;;4268704;27;20047;-74
2024/02/14 04:28:03;;;;;;;5.65;4.35;;;12.20;99.90;;;;;;4268563;27;20042;-74
2024/02/14 04:30:06;;;;;;;4.75;3.55;;;12.20;99.90;;;;;;4268199;27;20121;-73
2024/02/14 04:32:08;;;;;;;5.32;3.90;;;12.20;99.90;;;;;;4268786;27;20438;-73
2024/02/14 04:34:13;;;;;;;4.70;3.55;;;12.20;99.90;;;;;;4268258;27;20528;-74
2024/02/14 04:36:16;;;;;;;4.78;3.85;;;12.30;99.90;;;;;;4268356;27;20146;-73
2024/02/14 04:38:19;;;;;;;5.63;3.58;;;12.30;99.90;;;;;;4268357;27;20050;-74
2024/02/14 04:40:21;;;;;;;5.63;3.53;;;12.40;99.90;;;;;;4268335;27;20060;-73
2024/02/14 04:42:23;;;;;;;5.05;3.70;;;12.30;99.90;;;;;;4268626;27;20470;-73
2024/02/14 04:44:25;;;;;;;5.05;3.60;;;12.40;99.90;;;;;;4249589;27;20043;-73
2024/02/14 04:46:29;;;;;;;4.13;3.40;;;12.30;99.90;;;;;;4268213;27;20070;-73
2024/02/14 04:48:31;;;;;;;4.30;3.72;;;12.30;99.90;;;;;;4267708;27;20394;-74
2024/02/14 04:50:35;;;;;;;3.40;2.92;;;12.40;99.90;;;;;;4267954;27;20094;-74
2024/02/14 04:52:37;;;;;;;6.78;4.55;;;12.30;99.90;;;;;;4267936;27;20058;-73
2024/02/14 04:54:40;;;;;;;5.20;3.40;;;12.30;99.90;;;;;;4267751;27;20055;-73
2024/02/14 04:56:48;;;;;;;4.22;3.83;;;12.30;99.90;;;;;;4267935;27;20073;-73
2024/02/14 04:58:56;;;;;;;6.07;4.35;;;12.30;99.90;;;;;;4269720;27;20053;-74
2024/02/14 05:00:58;;;;;;;4.72;3.55;;;12.30;99.90;;;;;;4269329;27;20134;-74
2024/02/14 05:03:01;;;;;;;5.18;4.18;;;12.30;99.90;;;;;;4268551;27;20042;-74
2024/02/14 05:05:03;;;;;;;4.75;4.00;;;12.40;99.90;;;;;;4268764;27;20436;-73
2024/02/14 05:07:07;;;;;;;6.07;4.90;;;12.30;99.90;;;;;;4268380;27;20039;-73
2024/02/14 05:09:10;;;;;;;5.72;4.88;;;12.40;99.90;;;;;;4267856;27;20498;-73
2024/02/14 05:11:13;;;;;;;6.45;4.35;;;12.40;99.90;;;;;;4267521;27;20442;-73
2024/02/14 05:13:15;;;;;;;5.38;4.32;;;12.40;99.90;;;;;;4267705;27;20074;-72
2024/02/14 05:15:18;;;;;;;5.60;4.45;;;12.40;99.90;;;;;;4267406;27;20043;-72
2024/02/14 05:17:20;;;;;;;5.78;4.40;;;12.40;99.90;;;;;;4266883;27;20102;-73
2024/02/14 05:19:22;;;;;;;6.47;4.13;;;12.40;99.90;;;;;;4267410;27;20103;-73
2024/02/14 05:21:24;;;;;;;5.75;4.57;;;12.30;99.90;;;;;;4266971;27;20438;-73
2024/02/14 05:23:28;;;;;;;8.20;5.13;;;12.30;99.90;;;;;;4267076;27;20588;-73
2024/02/14 05:25:32;;;;;;;6.75;4.55;;;12.30;99.90;;;;;;4267048;27;20045;-71
2024/02/14 05:27:35;;;;;;;5.97;4.50;;;12.40;99.90;;;;;;4267010;27;20063;-71
2024/02/14 05:29:38;;;;;;;7.05;5.20;;;12.40;99.90;;;;;;4267075;27;20125;-71
2024/02/14 05:31:44;;;;;;;7.32;5.47;;;12.40;99.90;;;;;;4266576;27;20047;-70
2024/02/14 05:33:46;;;;;;;6.70;4.47;;;12.40;99.90;;;;;;4266999;27;20043;-70
2024/02/14 05:35:49;;;;;;;6.95;5.00;;;12.40;99.90;;;;;;4266997;27;20046;-70
2024/02/14 05:37:51;;;;;;;6.47;5.10;;;12.30;99.90;;;;;;4266857;27;20520;-71
2024/02/14 05:39:55;;;;;;;6.53;4.70;;;12.30;99.90;;;;;;4267085;27;20382;-71
2024/02/14 05:41:57;;;;;;;7.13;4.80;;;12.30;99.90;;;;;;4267330;27;20070;-71
2024/02/14 05:43:59;;;;;;;6.65;4.43;;;12.40;99.90;;;;;;4267408;27;20046;-71
2024/02/14 05:46:02;;;;;;;6.50;5.03;;;12.30;99.90;;;;;;4267752;27;20061;-71
2024/02/14 05:48:04;;;;;;;5.97;4.80;;;12.40;99.90;;;;;;4248573;27;20057;-71
2024/02/14 05:50:08;;;;;;;5.30;4.70;;;12.40;99.90;;;;;;4267010;27;20065;-70
2024/02/14 05:52:11;;;;;;;7.38;4.75;;;12.40;99.90;;;;;;4248679;27;20126;-73
2024/02/14 05:54:13;;;;;;;7.97;6.05;;;12.40;99.90;;;;;;4266741;27;20070;-71
2024/02/14 05:56:16;;;;;;;7.15;5.20;;;12.40;99.90;;;;;;4266787;27;20521;-72
2024/02/14 05:58:19;;;;;;;7.57;4.50;;;12.40;99.90;;;;;;4266764;27;20043;-72
2024/02/14 06:00:21;;;;;;;6.18;4.53;;;12.40;99.90;;;;;;4266403;27;20066;-72
2024/02/14 06:02:28;;;;;;;6.75;4.60;;;12.50;99.90;;;;;;4266511;27;20049;-72
2024/02/14 06:04:30;;;;;;;5.88;4.95;;;12.50;99.90;;;;;;4266941;27;20400;-72
2024/02/14 06:06:33;;;;;;;7.88;4.25;;;12.50;99.90;;;;;;4266999;27;20046;-72
2024/02/14 06:08:35;;;;;;;6.25;4.45;;;12.40;99.90;;;;;;4267359;27;20051;-72
2024/02/14 06:10:38;;;;;;;5.60;4.07;;;12.40;99.90;;;;;;4266995;27;20050;-72
2024/02/14 06:12:43;;;;;;;5.60;4.60;;;12.50;99.90;;;;;;4267336;27;20066;-72
2024/02/14 06:14:48;;;;;;;5.95;4.80;;;12.50;99.90;;;;;;4266342;27;20042;-72
2024/02/14 06:16:52;;;;;;;6.70;4.90;;;12.40;99.90;;;;;;4266578;27;20045;-73
2024/02/14 06:18:53;;;;;;;5.85;4.60;;;12.40;99.90;;;;;;4266515;27;20043;-73
2024/02/14 06:20:56;;;;;;;6.43;4.50;;;12.50;99.90;;;;;;4266398;27;20043;-73
2024/02/14 06:23:00;;;;;;;5.38;4.13;;;12.50;99.90;;;;;;4266254;27;20408;-71
2024/02/14 06:25:07;;;;;;;5.65;4.43;;;12.60;99.90;;;;;;4266124;27;20114;-72
2024/02/14 06:27:09;;;;;;;4.38;3.70;;;12.50;99.90;;;;;;4266382;27;20089;-73
2024/02/14 06:29:13;;;;;;;5.28;4.35;;;12.60;99.90;;;;;;4265767;27;20047;-72
2024/02/14 06:31:15;;;;;;;7.25;4.22;;;12.60;99.90;;;;;;4266407;27;20042;-72
2024/02/14 06:33:17;;;;;;;7.05;4.80;;;12.50;99.90;;;;;;4265859;27;20108;-72
2024/02/14 06:35:20;;;;;;;6.00;4.43;;;12.40;99.90;;;;;;4266392;27;20124;-71
2024/02/14 06:37:23;;;;;;;5.80;4.60;;;12.40;99.90;;;;;;4266048;27;20490;-72
2024/02/14 06:39:27;;;;;;;6.72;4.90;;;12.40;99.90;;;;;;4266198;27;20038;-73
2024/02/14 06:41:29;;;;;;;6.13;4.75;;;12.40;99.90;;;;;;4267053;27;20074;-73
2024/02/14 06:43:31;;;;;;;5.15;4.30;;;12.50;99.90;;;;;;4268328;27;20049;-74
2024/02/14 06:45:35;;;;;;;5.30;4.80;;;12.60;99.90;;;;;;4268509;27;20149;-73
2024/02/14 06:47:37;;;;;;;4.93;4.43;;;12.60;99.90;;;;;;4267005;27;20524;-72
2024/02/14 06:49:40;;;;;;;5.53;5.00;;;12.60;99.90;;;;;;4266492;27;20042;-72
2024/02/14 06:51:42;;;;;;;6.15;5.53;;;12.70;99.90;;;;;;4266723;27;20097;-73
2024/02/14 06:53:44;;;;;;;5.75;5.07;;;12.70;99.90;;;;;;4266198;27;20050;-72
2024/02/14 06:55:46;;;;;;;7.28;4.70;;;12.70;99.90;;;;;;4265738;27;20058;-72
2024/02/14 06:57:48;;;;;;;9.50;5.60;;;12.70;99.90;;;;;;4265418;27;20124;-73
2024/02/14 06:59:51;;;;;;;5.97;5.15;;;12.70;99.90;;;;;;4265901;27;20046;-73
2024/02/14 07:01:54;;;;;;;6.00;5.40;;;12.70;99.90;;;;;;4266260;27;20047;-72
2024/02/14 07:04:10;;;;;;;6.57;4.40;;;12.70;99.90;;;;;;4266542;27;20103;-73
2024/02/14 07:06:13;;;;;;;5.93;5.30;;;12.70;99.90;;;;;;4265677;27;20047;-72
2024/02/14 07:08:15;;;;;;;8.50;5.40;;;12.70;99.90;;;;;;4265105;27;20049;-73
2024/02/14 07:10:17;;;;;;;6.72;5.57;;;12.80;99.90;;;;;;4247360;27;20047;-73
2024/02/14 07:12:19;;;;;;;6.60;5.32;;;12.80;99.90;;;;;;4265267;27;20133;-72
2024/02/14 07:14:22;;;;;;;6.18;5.45;;;12.80;99.90;;;;;;4265692;27;20042;-73
2024/02/14 07:16:24;;;;;;;6.65;5.78;;;12.90;99.90;;;;;;4265703;27;20102;-72
2024/02/14 07:18:27;;;;;;;6.80;6.10;;;12.90;99.90;;;;;;4265531;27;20035;-72
2024/02/14 07:20:30;;;;;;;7.22;5.50;;;12.90;99.90;;;;;;4265809;27;20046;-72
2024/02/14 07:22:33;;;;;;;8.05;5.85;;;12.90;99.90;;;;;;4265613;27;20042;-73
2024/02/14 07:24:35;;;;;;;7.35;5.93;;;12.90;99.90;;;;;;4265606;27;20103;-73
2024/02/14 07:26:40;;;;;;;10.75;6.22;;;12.80;99.90;;;;;;4265186;27;20064;-73
2024/02/14 07:28:42;;;;;;;8.02;6.30;;;12.80;99.90;;;;;;4265449;27;20339;-73
2024/02/14 07:30:44;;;;;;;7.88;5.97;;;12.80;99.90;;;;;;4265770;27;20450;-73
2024/02/14 07:32:46;;;;;;;7.78;5.43;;;12.80;99.90;;;;;;4265397;27;20091;-73
2024/02/14 07:34:50;;;;;;;10.60;5.72;;;12.80;99.90;;;;;;4265416;27;20042;-73
2024/02/14 07:36:52;;;;;;;7.93;4.90;;;12.90;99.90;;;;;;4265343;27;20496;-73
2024/02/14 07:38:54;;;;;;;8.48;5.35;;;12.90;99.90;;;;;;4265356;27;20133;-72
2024/02/14 07:40:56;;;;;;;9.40;5.30;;;13.00;99.90;;;;;;4264744;27;20045;-72
2024/02/14 07:42:59;;;;;;;12.02;5.97;;;13.00;99.90;;;;;;4265446;27;20039;-72
2024/02/14 07:45:03;;;;;;;8.88;5.65;;;13.00;99.90;;;;;;4267361;27;20072;-72
2024/02/14 07:47:05;;;;;;;7.82;5.80;;;13.00;99.90;;;;;;4250740;27;20047;-72
2024/02/14 07:49:09;;;;;;;10.30;5.30;;;13.00;99.90;;;;;;4269328;27;20407;-72
2024/02/14 07:51:14;;;;;;;10.13;5.28;;;13.10;99.90;;;;;;4269357;27;20039;-72
2024/02/14 07:53:16;;;;;;;8.55;5.97;;;13.10;99.90;;;;;;4269188;27;20101;-73
2024/02/14 07:55:18;;;;;;;9.68;5.50;;;13.10;99.90;;;;;;4268772;27;20057;-72
2024/02/14 07:57:22;;;;;;;13.38;5.20;;;13.10;99.90;;;;;;4269028;27;20405;-71
2024/02/14 07:59:24;;;;;;;8.68;5.55;;;13.20;99.90;;;;;;4269183;27;20057;-72
2024/02/14 08:01:26;;;;;;;7.57;4.65;;;13.20;99.90;;;;;;4268896;27;20046;-72
2024/02/14 08:03:28;;;;;;;8.82;5.22;;;13.20;99.90;;;;;;4268757;27;20063;-72
2024/02/14 08:05:30;;;;;;;8.05;5.60;;;13.20;99.90;;;;;;4268281;27;20171;-72
2024/02/14 08:07:33;;;;;;;11.30;5.65;;;13.30;99.90;;;;;;4268327;27;20504;-72
2024/02/14 08:09:36;;;;;;;9.52;4.80;;;13.30;99.90;;;;;;4268411;27;20043;-72
2024/02/14 08:11:38;;;;;;;9.15;4.90;;;13.30;99.90;;;;;;4268303;27;20047;-72
2024/02/14 08:13:40;;;;;;;9.57;4.78;;;13.30;99.90;;;;;;4268029;27;20130;-73
2024/02/14 08:15:42;;;;;;;10.85;5.53;;;13.30;99.90;;;;;;4268456;27;20078;-73
2024/02/14 08:17:45;;;;;;;9.27;5.15;;;13.30;99.90;;;;;;4268474;27;20046;-73
2024/02/14 08:19:48;;;;;;;10.18;5.10;;;13.30;99.90;;;;;;4268381;27;20122;-73
2024/02/14 08:21:51;;;;;;;10.00;5.28;;;13.40;99.90;;;;;;4268238;27;20047;-74
2024/02/14 08:23:55;;;;;;;12.48;5.55;;;13.50;99.90;;;;;;4268276;27;20054;-73
2024/02/14 08:25:57;;;;;;;10.32;5.60;;;13.50;99.90;;;;;;4267868;27;20125;-73
2024/02/14 08:28:00;;;;;;;15.52;6.07;;;13.50;99.90;;;;;;4268371;27;20046;-73
2024/02/14 08:30:04;;;;;;;7.25;4.78;;;13.50;99.90;;;;;;4268207;27;20137;-73
2024/02/14 08:32:07;;;;;;;12.25;4.85;;;13.50;99.90;;;;;;4268410;27;20053;-74
2024/02/14 08:34:09;;;;;;;8.68;5.32;;;13.50;99.90;;;;;;4268334;27;20475;-73
2024/02/14 08:36:12;;;;;;;10.15;4.75;;;13.60;99.90;;;;;;4268041;27;20088;-74
2024/02/14 08:38:14;;;;;;;10.52;4.35;;;13.60;99.90;;;;;;4268111;27;20046;-74
2024/02/14 08:40:18;;;;;;;11.30;4.10;;;13.50;99.90;;;;;;4267554;27;20077;-74
2024/02/14 08:42:20;;;;;;;11.20;5.20;;;13.60;99.90;;;;;;4249984;27;20043;-74
2024/02/14 08:44:22;;;;;;;8.10;4.45;;;13.70;99.90;;;;;;4267934;27;20039;-75
2024/02/14 08:46:27;;;;;;;9.27;4.60;;;13.70;99.90;;;;;;4267954;27;20525;-74
2024/02/14 08:48:34;;;;;;;12.65;4.82;;;13.70;99.90;;;;;;4268200;27;20043;-74
2024/02/14 08:50:37;;;;;;;10.65;4.63;;;13.70;99.90;;;;;;4267940;27;20042;-74
2024/02/14 08:52:40;;;;;;;13.57;5.22;;;13.80;99.90;;;;;;4249739;27;20047;-74
2024/02/14 08:54:43;;;;;;;12.85;3.92;;;13.80;99.90;;;;;;4267362;27;20058;-74
2024/02/14 08:56:49;;;;;;;9.00;4.57;;;13.90;99.90;;;;;;4267679;27;20053;-74
2024/02/14 08:58:51;;;;;;;9.63;3.67;;;13.80;99.90;;;;;;4267791;27;20043;-73
2024/02/14 09:00:53;;;;;;;10.88;3.92;;;13.70;99.90;;;;;;4267898;27;20046;-72
2024/02/14 09:03:10;;;;;;;8.13;4.00;;;13.80;99.90;;;;;;4258029;27;20100;-72
2024/02/14 09:05:12;;;;;;;11.13;4.15;;;13.80;99.90;;;;;;4255779;27;20051;-73
2024/02/14 09:07:15;;;;;;;10.43;3.50;;;14.10;99.90;;;;;;4263663;27;20080;-73
2024/02/14 09:09:19;;;;;;;6.07;3.72;;;14.20;99.90;;;;;;4250031;27;20534;-73
2024/02/14 09:11:22;;;;;;;8.43;3.50;;;14.40;99.90;;;;;;4250573;27;20049;-73
2024/02/14 09:13:27;;;;;;;8.63;3.85;;;14.40;99.90;;;;;;4251699;27;20046;-74
2024/02/14 09:15:32;;;;;;;8.75;3.38;;;14.50;99.90;;;;;;4249918;27;20043;-75
2024/02/14 09:17:35;;;;;;;9.73;4.38;;;14.50;99.90;;;;;;4263077;27;20118;-73
2024/02/14 09:19:37;;;;;;;11.40;3.75;;;14.60;99.90;;;;;;4261218;27;20570;-71
2024/02/14 09:21:39;;;;;;;10.88;3.50;;;14.50;99.90;;;;;;4265318;27;20099;-71
2024/02/14 09:23:42;;;;;;;13.55;3.80;;;14.60;99.90;;;;;;4268463;27;20050;-74
2024/02/14 09:25:44;;;;;;;10.25;3.40;;;14.50;99.90;;;;;;4267452;27;20042;-71
2024/02/14 09:27:47;;;;;;;14.70;3.78;;;14.60;99.90;;;;;;4263596;27;20043;-73
2024/02/14 09:29:50;;;;;;;12.15;2.83;;;14.70;99.90;;;;;;4260783;27;20180;-72
2024/02/14 09:31:52;;;;;;;10.57;2.85;;;14.80;99.90;;;;;;4259277;27;20077;-72
2024/02/14 09:33:57;;;;;;;10.55;3.28;;;14.80;99.90;;;;;;4250564;27;20050;-73
2024/02/14 09:36:00;;;;;;;12.90;3.17;;;14.70;99.90;;;;;;4262684;27;20050;-73
2024/02/14 09:38:03;;;;;;;11.32;2.97;;;14.80;99.90;;;;;;4255017;27;20125;-74
2024/02/14 09:40:07;;;;;;;8.65;2.47;;;14.80;99.90;;;;;;4267636;27;20104;-73
2024/02/14 09:42:12;;;;;;;7.72;2.40;;;14.80;99.90;;;;;;4269468;27;20046;-74
2024/02/14 09:44:15;;;;;;;9.80;2.55;;;14.70;99.90;;;;;;4272600;27;20073;-74
2024/02/14 09:46:18;;;;;;;9.07;2.78;;;14.70;99.90;;;;;;4262530;27;20040;-73
2024/02/14 09:48:21;;;;;;;11.85;3.33;;;14.90;99.90;;;;;;4270951;27;20130;-74
2024/02/14 09:50:26;;;;;;;7.50;2.75;;;15.00;99.90;;;;;;4268318;27;20043;-73
2024/02/14 09:52:29;;;;;;;12.40;3.08;;;15.00;99.90;;;;;;4253478;27;20058;-73
2024/02/14 09:54:34;;;;;;;18.67;3.70;;;15.10;99.90;;;;;;4263875;27;20065;-74
2024/02/14 09:56:36;;;;;;;16.38;3.53;;;15.10;99.90;;;;;;4271052;27;20053;-75
2024/02/14 09:58:39;;;;;;;11.00;3.78;;;15.10;99.90;;;;;;4269301;27;20088;-74
2024/02/14 10:00:42;;;;;;;15.27;3.45;;;15.10;99.90;;;;;;4268912;27;20070;-75
2024/02/14 10:02:46;;;;;;;8.73;2.53;;;15.20;99.90;;;;;;4250447;27;20129;-75
2024/02/14 10:04:48;;;;;;;8.97;2.20;;;15.20;99.90;;;;;;4263616;27;20043;-76
2024/02/14 10:06:51;;;;;;;8.75;2.25;;;15.20;99.90;;;;;;4268454;27;20454;-75
2024/02/14 10:08:54;;;;;;;13.38;2.40;;;15.20;99.90;;;;;;4267061;27;20047;-75
2024/02/14 10:11:06;;;;;;;12.65;2.72;;;15.30;99.90;;;;;;4266986;27;20121;-75
2024/02/14 10:13:08;;;;;;;10.02;3.20;;;15.30;99.90;;;;;;4269619;27;20046;-76
2024/02/14 10:15:10;;;;;;;14.15;2.47;;;15.30;99.90;;;;;;4266701;27;20103;-75
2024/02/14 10:17:18;;;;;;;7.95;2.13;;;15.40;99.90;;;;;;4266432;27;20092;-74
2024/02/14 10:19:21;;;;;;;12.88;2.72;;;15.40;99.90;;;;;;4249937;27;20082;-75
2024/02/14 10:21:25;;;;;;;14.52;2.92;;;15.50;99.90;;;;;;4259284;27;20073;-76
2024/02/14 10:23:29;;;;;;;12.57;2.55;;;15.50;99.90;;;;;;4243785;27;20054;-76
2024/02/14 10:25:34;;;;;;;10.25;3.00;;;15.60;99.90;;;;;;4250201;27;20071;-75
2024/02/14 10:27:37;;;;;;;8.10;2.30;;;15.60;99.90;;;;;;4266837;27;20046;-75
2024/02/14 10:29:39;;;;;;;14.32;2.20;;;15.50;99.90;;;;;;4255759;27;20127;-75
2024/02/14 10:31:42;;;;;;;18.15;2.83;;;15.60;99.90;;;;;;4260276;27;20474;-75
2024/02/14 10:33:45;;;;;;;7.38;2.78;;;15.70;99.90;;;;;;4267307;27;20046;-76
2024/02/14 10:35:52;;;;;;;9.85;2.92;;;15.80;99.90;;;;;;4264138;27;20493;-74
2024/02/14 10:38:00;;;;;;;10.95;2.90;;;15.80;99.90;;;;;;4262707;27;20046;-75
2024/02/14 10:40:09;;;;;;;13.45;3.22;;;15.80;99.90;;;;;;4266301;27;20046;-74